YCC weather

Cornwall Regional Airport
Cornwall, Ontario, Canada

Public forecast

Using degrees Celsius for public forecast. Weather courtesy of forecast.io.

Closest aviation weather report (METAR) to Cornwall Regional Airport

Closest report is Massena International Richards Field, 15.2 nm (28.2 km) SW. Retrieved 2019/11/17 23:53 UTC (44 minutes ago):

KMSS 172353Z AUTO 08006KT 10SM CLR M04/M10 A3023 RMK AO2 SLP247 T10441100 11017 21056 57014

Closest aviation forecast (TAF) to Cornwall Regional Airport

Closest forecast is Massena International Richards Field, 15.2 nm (28.2 km) SW. Retrieved 2019-11-18 00:36 UTC (1 minute ago):

TAF KMSS 172335Z 1800/1824 08006KT P6SM SKC FM181200 05005KT P6SM SCT015 FM182100 04008KT P6SM BKN035